createdAt,value
2023-01-18T00:01:46.504Z,66.88
2023-01-18T00:07:17.751Z,67.05
2023-01-18T00:12:49.100Z,67.54
2023-01-18T00:18:20.123Z,67.42
2023-01-18T00:23:51.443Z,67.34
2023-01-18T00:29:22.406Z,66.76
2023-01-18T00:34:53.904Z,67.59
2023-01-18T00:40:29.002Z,67.08
2023-01-18T00:46:00.097Z,67.52
2023-01-18T00:51:31.201Z,67.42
2023-01-18T00:57:02.270Z,67.74
2023-01-18T01:02:33.707Z,67.67
2023-01-18T01:08:05.977Z,67.59
2023-01-18T01:13:55.785Z,67.50
2023-01-18T01:19:46.268Z,67.64
2023-01-18T01:25:35.803Z,67.81
2023-01-18T01:31:08.124Z,67.69
2023-01-18T01:36:39.532Z,67.78
2023-01-18T01:42:11.436Z,67.39
2023-01-18T01:47:43.039Z,67.80
2023-01-18T01:53:14.116Z,67.53
2023-01-18T01:58:45.344Z,67.60
2023-01-18T02:04:16.382Z,67.87
2023-01-18T02:09:47.381Z,67.43
2023-01-18T02:15:20.112Z,67.48
2023-01-18T02:21:00.779Z,67.57
2023-01-18T02:26:49.878Z,67.50
2023-01-18T02:32:20.735Z,67.72
2023-01-18T02:37:51.784Z,67.70
2023-01-18T02:43:41.887Z,68.13
2023-01-18T02:49:18.807Z,67.86
2023-01-18T02:54:49.669Z,68.34
2023-01-18T03:00:23.524Z,67.67
2023-01-18T03:05:56.316Z,67.73
2023-01-18T03:11:31.489Z,68.32
2023-01-18T03:17:20.296Z,67.58
2023-01-18T03:23:12.238Z,67.69
2023-01-18T03:29:05.615Z,67.68
2023-01-18T03:34:36.695Z,67.86
2023-01-18T03:40:07.756Z,68.39
2023-01-18T03:45:45.025Z,67.74
2023-01-18T03:51:18.884Z,68.45
2023-01-18T03:56:54.552Z,68.41
2023-01-18T04:02:26.695Z,68.14
2023-01-18T04:07:57.861Z,67.93
2023-01-18T04:13:29.005Z,68.31
2023-01-18T04:19:00.029Z,68.10
2023-01-18T04:24:30.993Z,68.20
2023-01-18T04:30:06.425Z,67.87
2023-01-18T04:35:37.277Z,68.25
2023-01-18T04:41:08.305Z,68.42
2023-01-18T04:46:39.497Z,68.40
2023-01-18T04:52:10.635Z,68.48
2023-01-18T04:57:45.126Z,68.68
2023-01-18T05:03:16.384Z,67.93
2023-01-18T05:08:47.616Z,68.48
2023-01-18T05:14:19.139Z,68.57
2023-01-18T05:19:51.698Z,68.39
2023-01-18T05:25:22.731Z,68.79
2023-01-18T05:30:54.660Z,68.29
2023-01-18T05:36:25.672Z,68.10
2023-01-18T05:41:58.727Z,68.62
2023-01-18T05:47:31.365Z,68.43
2023-01-18T05:53:02.269Z,68.51
2023-01-18T05:58:33.132Z,68.53
2023-01-18T06:04:04.411Z,68.78
2023-01-18T06:09:35.646Z,68.21
2023-01-18T06:15:06.977Z,68.83
2023-01-18T06:20:37.955Z,68.30
2023-01-18T06:26:09.112Z,68.37
2023-01-18T06:31:40.395Z,68.97
2023-01-18T06:37:11.523Z,68.33
2023-01-18T06:42:42.611Z,69.11
2023-01-18T06:48:13.435Z,68.95
2023-01-18T06:53:44.318Z,68.70
2023-01-18T06:59:15.957Z,68.25
2023-01-18T07:04:47.397Z,68.42
2023-01-18T07:10:18.481Z,68.62
2023-01-18T07:15:57.988Z,68.55
2023-01-18T07:21:30.904Z,68.48
2023-01-18T07:27:03.478Z,68.13
2023-01-18T07:32:34.394Z,67.75
2023-01-18T07:38:05.533Z,67.89
2023-01-18T07:43:37.952Z,67.59
2023-01-18T07:49:09.224Z,67.99
2023-01-18T07:54:40.469Z,68.00
2023-01-18T08:00:12.159Z,68.22
2023-01-18T08:05:46.570Z,67.75
2023-01-18T08:11:18.031Z,67.96
2023-01-18T08:16:49.443Z,67.79
2023-01-18T08:22:20.507Z,67.43
2023-01-18T08:27:51.317Z,67.23
2023-01-18T08:33:23.229Z,67.59
2023-01-18T08:38:55.502Z,68.47
2023-01-18T08:44:26.913Z,68.06
2023-01-18T08:49:58.051Z,67.89
2023-01-18T08:55:29.965Z,68.27
2023-01-18T09:01:04.315Z,67.92
2023-01-18T09:06:35.412Z,67.55
2023-01-18T09:12:06.527Z,67.71
2023-01-18T09:17:37.773Z,67.99
2023-01-18T09:23:09.382Z,67.87
2023-01-18T09:28:40.532Z,67.88
2023-01-18T09:34:19.421Z,67.85
2023-01-18T09:39:52.411Z,67.65
2023-01-18T09:45:26.379Z,67.74
2023-01-18T09:50:58.946Z,67.31
2023-01-18T09:56:33.351Z,67.70
2023-01-18T10:02:10.315Z,67.43
2023-01-18T10:08:02.925Z,67.60
2023-01-18T10:13:45.721Z,67.59
2023-01-18T10:19:19.158Z,67.98
2023-01-18T10:24:51.976Z,67.55
2023-01-18T10:30:29.607Z,67.93
2023-01-18T10:36:01.383Z,67.88
2023-01-18T10:41:33.829Z,67.58
2023-01-18T10:47:04.999Z,67.39
2023-01-18T10:52:36.230Z,68.05
2023-01-18T10:58:09.116Z,67.58
2023-01-18T11:03:45.414Z,67.45
2023-01-18T11:09:34.620Z,67.48
2023-01-18T11:15:14.455Z,68.20
2023-01-18T11:20:50.278Z,67.45
2023-01-18T11:26:22.150Z,68.25
2023-01-18T11:31:53.116Z,67.83
2023-01-18T11:37:24.357Z,68.11
2023-01-18T11:43:10.207Z,67.65
2023-01-18T11:48:50.644Z,67.92
2023-01-18T11:54:26.847Z,67.96
2023-01-18T11:59:58.767Z,68.34
2023-01-18T12:05:32.249Z,68.21
2023-01-18T12:11:21.627Z,68.57
2023-01-18T12:17:06.423Z,68.62
2023-01-18T12:22:52.859Z,68.48
2023-01-18T12:28:43.319Z,67.99
2023-01-18T12:34:15.529Z,68.39
2023-01-18T12:40:00.260Z,68.46
2023-01-18T12:45:43.683Z,68.42
2023-01-18T12:51:18.118Z,68.58
2023-01-18T12:56:49.895Z,68.13
2023-01-18T13:02:34.126Z,68.38
2023-01-18T13:08:11.965Z,68.08
2023-01-18T13:13:45.102Z,68.22
2023-01-18T13:19:22.232Z,68.11
2023-01-18T13:25:09.497Z,68.33
2023-01-18T13:31:02.192Z,68.73
2023-01-18T13:36:44.750Z,68.82
2023-01-18T13:42:24.220Z,68.36
2023-01-18T13:48:03.621Z,68.61
2023-01-18T13:53:50.285Z,68.67
2023-01-18T13:59:23.452Z,68.70
2023-01-18T14:05:03.961Z,68.66
2023-01-18T14:10:37.083Z,68.54
2023-01-18T14:16:13.232Z,68.49
2023-01-18T14:21:44.219Z,68.77
2023-01-18T14:27:17.006Z,68.70
2023-01-18T14:32:53.609Z,68.67
2023-01-18T14:38:25.358Z,68.75
2023-01-18T14:43:56.438Z,68.67
2023-01-18T14:49:29.535Z,68.49
2023-01-18T14:55:00.714Z,68.54
2023-01-18T15:00:32.023Z,68.84
2023-01-18T15:06:13.345Z,68.70
2023-01-18T15:11:44.487Z,68.39
2023-01-18T15:17:21.650Z,68.37
2023-01-18T15:22:52.939Z,68.51
2023-01-18T15:28:29.214Z,68.73
2023-01-18T15:34:00.276Z,68.76
2023-01-18T15:39:34.626Z,68.83
2023-01-18T15:45:06.111Z,68.62
2023-01-18T15:50:38.553Z,69.10
2023-01-18T15:56:15.541Z,68.47
2023-01-18T16:01:49.640Z,68.64
2023-01-18T16:07:29.995Z,68.38
2023-01-18T16:13:19.628Z,68.77
2023-01-18T16:18:52.062Z,68.40
2023-01-18T16:24:27.613Z,68.54
2023-01-18T16:29:59.911Z,68.58
2023-01-18T16:35:31.153Z,68.37
2023-01-18T16:41:03.400Z,68.68
2023-01-18T16:46:36.124Z,68.73
2023-01-18T16:52:12.721Z,68.69
2023-01-18T16:57:44.452Z,68.77
2023-01-18T17:03:15.638Z,68.48
2023-01-18T17:08:46.796Z,69.02
2023-01-18T17:14:18.483Z,69.07
2023-01-18T17:19:51.677Z,68.56
2023-01-18T17:25:23.126Z,68.65
2023-01-18T17:30:54.273Z,68.33
2023-01-18T17:36:25.744Z,68.72
2023-01-18T17:41:56.778Z,68.41
2023-01-18T17:47:28.375Z,68.69
2023-01-18T17:52:59.772Z,68.57
2023-01-18T17:58:31.107Z,68.38
2023-01-18T18:04:02.265Z,68.88
2023-01-18T18:09:38.373Z,68.44
2023-01-18T18:15:09.445Z,68.33
2023-01-18T18:20:40.421Z,68.67
2023-01-18T18:26:11.653Z,68.52
2023-01-18T18:31:44.096Z,68.37
2023-01-18T18:37:16.414Z,68.44
2023-01-18T18:43:00.696Z,68.51
2023-01-18T18:48:33.540Z,68.63
2023-01-18T18:54:05.199Z,69.24
2023-01-18T18:59:36.248Z,68.55
2023-01-18T19:05:07.582Z,68.87
2023-01-18T19:10:39.481Z,69.12
2023-01-18T19:16:11.101Z,68.42
2023-01-18T19:21:42.461Z,68.77
2023-01-18T19:27:13.499Z,68.83
2023-01-18T19:32:47.883Z,68.68
2023-01-18T19:38:18.963Z,68.55
2023-01-18T19:43:50.528Z,68.34
2023-01-18T19:49:25.359Z,68.55
2023-01-18T19:54:56.478Z,69.26
2023-01-18T20:00:27.718Z,69.04
2023-01-18T20:05:58.747Z,68.53
2023-01-18T20:11:29.990Z,69.17
2023-01-18T20:17:01.033Z,68.61
2023-01-18T20:22:32.130Z,68.72
2023-01-18T20:28:03.620Z,69.20
2023-01-18T20:33:35.678Z,68.63
2023-01-18T20:39:07.793Z,68.52
2023-01-18T20:44:38.676Z,68.57
2023-01-18T20:50:10.146Z,68.57
2023-01-18T20:55:42.181Z,68.79
2023-01-18T21:01:15.942Z,69.07
2023-01-18T21:06:48.137Z,68.90
2023-01-18T21:12:19.382Z,68.50
2023-01-18T21:17:51.637Z,69.06
2023-01-18T21:23:28.819Z,68.91
2023-01-18T21:29:00.110Z,68.56
2023-01-18T21:34:31.117Z,69.20
2023-01-18T21:40:02.699Z,68.62
2023-01-18T21:45:52.595Z,68.73
2023-01-18T21:51:42.248Z,69.14
2023-01-18T21:57:13.244Z,69.28
2023-01-18T22:02:44.371Z,69.48
2023-01-18T22:08:15.432Z,68.83
2023-01-18T22:13:46.810Z,68.90
2023-01-18T22:19:19.319Z,68.93
2023-01-18T22:24:50.405Z,69.64
2023-01-18T22:30:21.536Z,69.46
2023-01-18T22:36:01.594Z,69.28
2023-01-18T22:41:32.423Z,69.44
2023-01-18T22:47:03.368Z,69.15
2023-01-18T22:52:34.764Z,69.08
2023-01-18T22:58:05.585Z,69.59
2023-01-18T23:03:36.665Z,69.61
2023-01-18T23:09:09.110Z,69.55
2023-01-18T23:14:58.887Z,69.56
2023-01-18T23:20:30.208Z,69.71
2023-01-18T23:26:01.424Z,69.38
2023-01-18T23:31:32.266Z,69.26
2023-01-18T23:37:03.243Z,69.57
2023-01-18T23:42:52.939Z,69.67
2023-01-18T23:48:42.510Z,69.74
2023-01-18T23:54:16.956Z,69.07
2023-01-18T23:59:48.450Z,69.23
